Overview Statistics Trail Chart Weather Telemetry Raw packets
 

This is the latest recevied telemetry packets stored in our database for station/object OE1MBW-12. If no packets are shown the sender has not sent any telemetry packets the latest 10 day(s).

Telemetry packets is used to share measurements like repeteater parameters, battery voltage, radiation readings (or any other measurements).

<< 1 2 3 4 >>
Time Press* Temp.in* Hum* eGAS* Temp.out*
1778044443 985.6 hPa 20.1 C deg 51.8 % 37 - 28.4 C deg
1778042628 985.4 hPa 20 C deg 50.8 % 38 - 28.3 C deg
1778040813 985.2 hPa 19.9 C deg 51.8 % 38 - 28.2 C deg
1778038998 985 hPa 19.9 C deg 52.2 % 38 - 28.3 C deg
1778037183 985 hPa 20.2 C deg 51.9 % 37 - 28.6 C deg
1778035367 984.9 hPa 20.4 C deg 51.4 % 37 - 28.7 C deg
1778033552 984.8 hPa 20.4 C deg 51.3 % 38 - 28.8 C deg
1778031737 984.5 hPa 20.6 C deg 50 % 40 - 28.9 C deg
1778029922 984.3 hPa 20.5 C deg 49.9 % 40 - 28.8 C deg
1778028107 984 hPa 19.9 C deg 49.7 % 41 - 28.1 C deg
1778026292 983.6 hPa 19.6 C deg 49.6 % 39 - 27.9 C deg
1778024477 983.5 hPa 19.8 C deg 47.5 % 41 - 28 C deg
1778022662 983.2 hPa 19.7 C deg 47.2 % 42 - 27.9 C deg
1778020847 982.7 hPa 19.9 C deg 47.1 % 41 - 28.1 C deg
1778019031 982.4 hPa 20.1 C deg 46 % 42 - 28.4 C deg
1778017216 982.2 hPa 20.5 C deg 44.9 % 42 - 28.8 C deg
1778015401 982 hPa 21 C deg 43.6 % 45 - 29.2 C deg
1778013586 981.4 hPa 20.9 C deg 43.5 % 47 - 29.4 C deg
1778011771 981.3 hPa 21.4 C deg 42.5 % 44 - 29.7 C deg
1778009956 981.1 hPa 21.4 C deg 42.2 % 47 - 29.9 C deg
1778008141 981.1 hPa 21.4 C deg 42 % 47 - 29.9 C deg
1778006326 980.9 hPa 21.9 C deg 40.8 % 50 - 30.6 C deg
1778004511 980.9 hPa 23.6 C deg 37 % 43 - 32.1 C deg
1778002696 980.9 hPa 24.6 C deg 35.4 % 43 - 32.8 C deg
1778000880 981 hPa 24.8 C deg 35.2 % 46 - 33 C deg
*Used Equation Coefficients:
Press: 0, 1, 0
Temp.in: 0, 1, 0
Hum: 0, 1, 0
eGAS: 0, 1, 0
Temp.out: 0, 1, 0

  • The parameter names for the analog channels will be Value1, Value2, Value3 (up to Value5) if station has not sent a PARAM-packet that specifies the parameter names for each analog channel.
  • Each analog value is a decimal number between 000 and 255 (according to APRS specifications). The receiver use the telemetry equation coefficientsto to restore the original sensor values. If no EQNS-packet with equation coefficients is sent we will show the values as is (this corresponds to the equation coefficients a=0, b=1 and c=0).
    The sent equation coefficients is used in the equation: a * value2 + b * value + c.
  • The units for the analog values will not be shown if station has not sent a UNIT-packet specifying what unit's to use.
  • The parameter names for the digital bits will be Bit1, Bit2, Bit3 (up to Bit8) if station has not sent a PARAM-packet that specifies the parameter names for each digital bit.
  • All bit labels will be named "On" if station has not sent a UNIT-packet that specifies the label of each bit.
  • A bit is considered to be On when the bit is 1 if station has not sent a BITS-packet that specifies another "Bit sense" (a BITS-packet specify the state of the bits that match the BIT labels)